createdAt,value
2023-09-15T00:00:27.119Z,10.00
2023-09-15T00:05:31.002Z,10.00
2023-09-15T00:10:40.686Z,10.00
2023-09-15T00:15:44.135Z,10.00
2023-09-15T00:20:47.693Z,10.00
2023-09-15T00:25:55.869Z,10.00
2023-09-15T00:30:59.672Z,10.00
2023-09-15T00:36:04.093Z,9.90
2023-09-15T00:41:09.725Z,9.70
2023-09-15T00:46:14.158Z,9.70
2023-09-15T00:51:17.751Z,9.80
2023-09-15T00:56:23.142Z,9.70
2023-09-15T01:01:27.785Z,9.70
2023-09-15T01:06:33.619Z,9.70
2023-09-15T01:11:38.992Z,9.80
2023-09-15T01:16:48.764Z,9.70
2023-09-15T01:22:13.760Z,9.70
2023-09-15T01:28:06.239Z,9.60
2023-09-15T01:33:14.617Z,9.60
2023-09-15T01:38:18.241Z,9.60
2023-09-15T01:43:22.352Z,9.50
2023-09-15T01:48:27.833Z,9.60
2023-09-15T01:53:31.501Z,9.60
2023-09-15T01:58:35.028Z,9.60
2023-09-15T02:03:40.164Z,9.60
2023-09-15T02:08:43.996Z,9.60
2023-09-15T02:13:47.796Z,9.50
2023-09-15T02:18:52.508Z,9.50
2023-09-15T02:23:55.953Z,9.50
2023-09-15T02:28:59.370Z,9.40
2023-09-15T02:34:04.319Z,9.40
2023-09-15T02:39:07.766Z,9.40
2023-09-15T02:44:12.087Z,9.30
2023-09-15T02:49:17.190Z,9.30
2023-09-15T02:54:21.348Z,9.20
2023-09-15T02:59:27.394Z,9.20
2023-09-15T03:04:32.580Z,9.30
2023-09-15T03:09:38.458Z,9.30
2023-09-15T03:14:43.252Z,9.20
2023-09-15T03:19:48.323Z,9.30
2023-09-15T03:24:51.887Z,9.30
2023-09-15T03:29:55.877Z,9.30
2023-09-15T03:35:01.786Z,9.10
2023-09-15T03:40:12.699Z,9.20
2023-09-15T03:45:16.903Z,9.20
2023-09-15T03:50:22.994Z,9.20
2023-09-15T03:55:28.268Z,9.10
2023-09-15T04:00:31.808Z,9.20
2023-09-15T04:05:37.269Z,9.20
2023-09-15T04:10:40.743Z,9.10
2023-09-15T04:15:44.203Z,9.10
2023-09-15T04:20:51.510Z,9.10
2023-09-15T04:25:55.508Z,9.10
2023-09-15T04:30:59.092Z,9.10
2023-09-15T04:36:04.981Z,9.20
2023-09-15T04:41:08.408Z,9.10
2023-09-15T04:46:12.768Z,9.10
2023-09-15T04:51:18.965Z,9.10
2023-09-15T04:56:22.475Z,9.20
2023-09-15T05:01:26.422Z,9.20
2023-09-15T05:06:31.356Z,9.20
2023-09-15T05:11:35.779Z,9.30
2023-09-15T05:16:40.037Z,9.40
2023-09-15T05:21:44.988Z,9.50
2023-09-15T05:26:48.841Z,9.60
2023-09-15T05:31:52.900Z,9.70
2023-09-15T05:36:58.302Z,10.10
2023-09-15T05:42:02.071Z,10.90
2023-09-15T05:47:05.807Z,11.00
2023-09-15T05:52:10.697Z,10.90
2023-09-15T05:57:14.434Z,11.30
2023-09-15T06:02:19.478Z,11.50
2023-09-15T06:07:24.856Z,11.60
2023-09-15T06:12:28.290Z,11.90
2023-09-15T06:17:31.727Z,13.60
2023-09-15T06:22:36.669Z,16.40
2023-09-15T06:27:40.803Z,18.60
2023-09-15T06:32:44.296Z,19.80
2023-09-15T06:37:49.118Z,20.70
2023-09-15T06:42:52.573Z,21.30
2023-09-15T06:47:56.432Z,21.20
2023-09-15T06:53:01.563Z,21.90
2023-09-15T06:58:04.980Z,21.60
2023-09-15T07:03:08.988Z,21.70
2023-09-15T07:08:14.159Z,21.90
2023-09-15T07:13:18.399Z,21.70
2023-09-15T07:18:22.496Z,22.40
2023-09-15T07:23:28.260Z,22.80
2023-09-15T07:28:31.843Z,22.40
2023-09-15T07:33:36.031Z,22.40
2023-09-15T07:38:41.203Z,24.10
2023-09-15T07:43:44.774Z,23.90
2023-09-15T07:48:48.214Z,23.70
2023-09-15T07:53:53.820Z,23.90
2023-09-15T07:58:58.103Z,24.70
2023-09-15T08:04:01.780Z,24.90
2023-09-15T08:09:06.751Z,24.10
2023-09-15T08:14:10.731Z,24.00
2023-09-15T08:19:14.476Z,23.00
2023-09-15T08:24:21.353Z,24.50
2023-09-15T08:29:25.254Z,24.30
2023-09-15T08:34:28.745Z,24.10
2023-09-15T08:39:33.696Z,25.10
2023-09-15T08:44:39.883Z,26.40
2023-09-15T08:49:44.551Z,26.50
2023-09-15T08:54:52.429Z,26.30
2023-09-15T08:59:56.948Z,27.50
2023-09-15T09:05:00.411Z,27.20
2023-09-15T09:10:06.611Z,27.30
2023-09-15T09:15:11.846Z,26.40
2023-09-15T09:20:25.599Z,25.70
2023-09-15T09:25:35.198Z,26.10
2023-09-15T09:30:38.928Z,27.40
2023-09-15T09:35:42.893Z,26.90
2023-09-15T09:40:47.797Z,25.90
2023-09-15T09:45:53.079Z,26.30
2023-09-15T09:50:56.919Z,26.10
2023-09-15T09:56:01.996Z,24.10
2023-09-15T10:01:07.708Z,23.30
2023-09-15T10:06:12.528Z,23.40
2023-09-15T10:11:17.852Z,24.30
2023-09-15T10:16:21.647Z,24.90
2023-09-15T10:21:26.444Z,25.50
2023-09-15T10:26:32.106Z,25.70
2023-09-15T10:31:36.261Z,25.40
2023-09-15T10:36:42.513Z,25.80
2023-09-15T10:41:50.306Z,26.20
2023-09-15T10:46:54.272Z,25.90
2023-09-15T10:51:59.579Z,25.80
2023-09-15T10:57:05.133Z,26.20
2023-09-15T11:02:10.251Z,26.00
2023-09-15T11:07:15.082Z,26.00
2023-09-15T11:12:19.956Z,26.00
2023-09-15T11:17:24.619Z,26.00
2023-09-15T11:22:28.145Z,26.30
2023-09-15T11:27:34.673Z,24.90
2023-09-15T11:32:39.240Z,23.70
2023-09-15T11:37:43.042Z,23.30
2023-09-15T11:42:54.085Z,24.20
2023-09-15T11:48:00.276Z,24.50
2023-09-15T11:53:04.890Z,25.50
2023-09-15T11:58:10.195Z,26.20
2023-09-15T12:03:13.904Z,26.90
2023-09-15T12:08:19.432Z,26.00
2023-09-15T12:13:24.466Z,26.40
2023-09-15T12:18:28.142Z,26.70
2023-09-15T12:23:32.344Z,27.00
2023-09-15T12:28:40.022Z,27.50
2023-09-15T12:33:46.944Z,28.20
2023-09-15T12:38:57.331Z,26.60
2023-09-15T12:44:03.129Z,26.80
2023-09-15T12:49:07.837Z,27.50
2023-09-15T12:54:11.384Z,27.40
2023-09-15T12:59:16.393Z,26.90
2023-09-15T13:04:20.120Z,27.00
2023-09-15T13:09:25.832Z,26.40
2023-09-15T13:14:30.955Z,26.70
2023-09-15T13:19:34.400Z,26.10
2023-09-15T13:24:37.875Z,25.50
2023-09-15T13:29:42.967Z,24.70
2023-09-15T13:34:46.704Z,23.90
2023-09-15T13:39:51.593Z,25.00
2023-09-15T13:44:56.626Z,25.60
2023-09-15T13:50:01.310Z,25.90
2023-09-15T13:55:05.853Z,26.40
2023-09-15T14:00:11.692Z,25.80
2023-09-15T14:05:15.907Z,25.70
2023-09-15T14:10:20.440Z,25.30
2023-09-15T14:15:25.238Z,24.70
2023-09-15T14:20:29.093Z,24.70
2023-09-15T14:25:33.181Z,24.40
2023-09-15T14:30:38.190Z,24.50
2023-09-15T14:35:41.610Z,24.50
2023-09-15T14:40:45.131Z,24.70
2023-09-15T14:45:50.520Z,25.00
2023-09-15T14:50:54.835Z,25.40
2023-09-15T14:55:58.354Z,25.70
2023-09-15T15:01:03.267Z,25.80
2023-09-15T15:06:06.693Z,25.20
2023-09-15T15:11:10.370Z,25.30
2023-09-15T15:16:17.224Z,25.70
2023-09-15T15:21:21.539Z,24.90
2023-09-15T15:26:26.166Z,25.00
2023-09-15T15:31:31.191Z,25.10
2023-09-15T15:36:34.716Z,24.50
2023-09-15T15:41:38.247Z,24.00
2023-09-15T15:46:43.273Z,23.90
2023-09-15T15:51:46.765Z,23.20
2023-09-15T15:56:50.763Z,22.80
2023-09-15T16:01:56.043Z,22.90
2023-09-15T16:06:59.776Z,22.70
2023-09-15T16:12:03.632Z,22.70
2023-09-15T16:17:08.653Z,22.50
2023-09-15T16:22:12.120Z,22.20
2023-09-15T16:27:15.723Z,21.80
2023-09-15T16:32:20.570Z,21.60
2023-09-15T16:37:24.965Z,21.40
2023-09-15T16:42:28.926Z,21.30
2023-09-15T16:47:34.325Z,21.00
2023-09-15T16:52:37.720Z,20.60
2023-09-15T16:57:41.342Z,20.30
2023-09-15T17:02:46.258Z,19.90
2023-09-15T17:07:49.632Z,19.60
2023-09-15T17:12:53.249Z,19.50
2023-09-15T17:17:59.390Z,19.50
2023-09-15T17:23:04.913Z,19.30
2023-09-15T17:28:09.680Z,19.20
2023-09-15T17:33:14.551Z,18.80
2023-09-15T17:38:18.214Z,18.50
2023-09-15T17:43:22.380Z,18.30
2023-09-15T17:48:27.496Z,18.20
2023-09-15T17:53:31.187Z,17.80
2023-09-15T17:58:34.812Z,17.70
2023-09-15T18:03:39.803Z,17.50
2023-09-15T18:08:43.364Z,17.20
2023-09-15T18:13:47.345Z,17.20
2023-09-15T18:18:52.490Z,17.00
2023-09-15T18:23:56.477Z,17.00
2023-09-15T18:29:01.085Z,17.00
2023-09-15T18:34:06.118Z,16.80
2023-09-15T18:39:10.102Z,16.90
2023-09-15T18:44:13.638Z,16.70
2023-09-15T18:49:18.466Z,17.00
2023-09-15T18:54:25.496Z,17.00
2023-09-15T18:59:29.882Z,16.90
2023-09-15T19:04:35.550Z,16.80
2023-09-15T19:09:39.240Z,16.90
2023-09-15T19:14:44.284Z,16.90
2023-09-15T19:19:49.373Z,16.70
2023-09-15T19:24:53.104Z,16.80
2023-09-15T19:29:57.813Z,16.80
2023-09-15T19:35:02.751Z,16.90
2023-09-15T19:40:07.644Z,16.80
2023-09-15T19:45:13.412Z,16.90
2023-09-15T19:50:20.315Z,16.80
2023-09-15T19:55:23.993Z,16.50
2023-09-15T20:00:27.985Z,16.50
2023-09-15T20:05:33.851Z,16.50
2023-09-15T20:10:37.781Z,16.40
2023-09-15T20:15:41.710Z,16.20
2023-09-15T20:20:47.269Z,16.20
2023-09-15T20:25:50.912Z,16.00
2023-09-15T20:30:54.487Z,15.70
2023-09-15T20:35:59.573Z,15.60
2023-09-15T20:41:04.657Z,15.40
2023-09-15T20:46:08.475Z,15.20
2023-09-15T20:51:13.646Z,15.00
2023-09-15T20:56:17.119Z,15.20
2023-09-15T21:01:20.616Z,15.00
2023-09-15T21:06:25.507Z,14.90
2023-09-15T21:11:29.000Z,15.20
2023-09-15T21:16:32.640Z,15.00
2023-09-15T21:21:37.996Z,15.00
2023-09-15T21:26:42.088Z,14.90
2023-09-15T21:31:45.911Z,15.00
2023-09-15T21:36:52.091Z,15.10
2023-09-15T21:41:55.700Z,15.10
2023-09-15T21:46:59.660Z,15.10
2023-09-15T21:52:05.896Z,15.20
2023-09-15T21:57:09.516Z,15.30
2023-09-15T22:02:15.133Z,15.30
2023-09-15T22:07:22.051Z,15.30
2023-09-15T22:12:25.511Z,15.50
2023-09-15T22:17:28.999Z,15.60
2023-09-15T22:22:34.723Z,15.60
2023-09-15T22:27:39.378Z,15.50
2023-09-15T22:32:43.053Z,15.30
2023-09-15T22:37:47.863Z,15.10
2023-09-15T22:42:52.196Z,14.90
2023-09-15T22:47:58.567Z,14.90
2023-09-15T22:53:04.332Z,14.90
2023-09-15T22:58:07.739Z,14.70
2023-09-15T23:03:11.337Z,14.60
2023-09-15T23:08:16.145Z,14.60
2023-09-15T23:13:20.238Z,14.60
2023-09-15T23:18:23.938Z,14.50
2023-09-15T23:23:29.386Z,14.40
2023-09-15T23:28:32.853Z,14.20
2023-09-15T23:33:39.077Z,14.20
2023-09-15T23:38:43.865Z,14.10
2023-09-15T23:43:47.283Z,14.10
2023-09-15T23:48:52.557Z,14.00
2023-09-15T23:53:57.738Z,13.90
2023-09-15T23:59:01.183Z,13.80
